• Join FlightAware (Why Join?)
  • Login
  • US Flag 
07:46PM EDT


 

Airport Tracker/Info


-or-


 

Live Flight TrackerFlight Track Log ✈ SWA1849 ✈ 02-Nov-2013 ✈ KTPA - KALB

Flight Track Log - Related Links

Times and Time Zones

All times are in EDT time to prevent confusion due to time zone crossing. See the SWA1849 flight status page for this flight to view local times or setup timezone preferences in your user account.

Time Position Orientation Groundspeed Altitude Reporting Facility
EDT Latitude Longitude Course Direction KTS MPH feet Rate Location/Type
12:42PM 28.0333 -82.5333 360° North 195 224 2,600  Level Tampa TRACON
12:43PM 28.1000 -82.5167 12° North 231 266 4,500 2,280 Climbing Tampa TRACON
12:45PM 28.2622 -82.5344 354° North 280 322 9,700 2,280 Climbing Jacksonville Center
12:46PM 28.3561 -82.5458 354° North 309 356 11,600 2,400 Climbing Jacksonville Center
12:47PM 28.4647 -82.5597 354° North 353 406 14,600 3,060 Climbing Jacksonville Center
12:48PM 28.5711 -82.5758 352° North 377 434 17,800 2,700 Climbing Jacksonville Center
12:49PM 28.6817 -82.5919 353° North 393 452 20,000 2,160 Climbing Jacksonville Center
12:50PM 28.7967 -82.6058 354° North 404 465 22,200 1,980 Climbing Jacksonville Center
12:51PM 28.9156 -82.6222 353° North 416 479 24,000 1,740 Climbing Jacksonville Center
12:52PM 29.0386 -82.6383 353° North 430 495 25,700 960 Climbing Jacksonville Center
12:53PM 29.1703 -82.6572 353° North 451 519 26,000 1,200 Climbing Jacksonville Center
12:54PM 29.2997 -82.6758 353° North 467 537 28,100 1,800 Climbing Jacksonville Center
12:55PM 29.4333 -82.6922 354° North 467 537 29,700 1,500 Climbing Jacksonville Center
12:56PM 29.5608 -82.6967 358° North 486 559 31,100 1,200 Climbing Jacksonville Center
12:57PM 29.6986 -82.6942 North 491 565 32,200 1,200 Climbing Jacksonville Center
12:58PM 29.8406 -82.6939 360° North 496 571 33,600 900 Climbing Jacksonville Center
12:59PM 29.9803 -82.6911 North 496 571 34,000 840 Climbing Jacksonville Center
01:00PM 30.1347 -82.6836 North 496 571 35,300 1,020 Climbing Jacksonville Center
01:01PM 30.2392 -82.6497 16° North 490 564 36,100 960 Climbing Jacksonville Center
01:02PM 30.3811 -82.5917 19° North 484 557 37,300 1,200 Climbing Jacksonville Center
01:03PM 30.5103 -82.5381 20° North 484 557 38,600 840 Climbing Jacksonville Center
01:04PM 30.6397 -82.4822 20° North 484 557 39,000 180 Climbing Jacksonville Center
01:05PM 30.7667 -82.4283 20° North 484 557 39,000  Level Jacksonville Center
01:06PM 30.8961 -82.3697 21° North 484 557 39,000  Level Jacksonville Center
01:07PM 31.0231 -82.3156 20° North 484 557 39,000  Level Jacksonville Center
01:08PM 31.1439 -82.2444 27° Northeast 479 551 39,000  Level Jacksonville Center
01:09PM 31.2647 -82.1806 24° Northeast 479 551 39,000  Level Jacksonville Center
01:10PM 31.3894 -82.1114 25° Northeast 479 551 39,000  Level Jacksonville Center
01:11PM 31.5122 -82.0422 26° Northeast 479 551 39,000  Level Jacksonville Center
01:12PM 31.6453 -81.9653 26° Northeast 480 552 39,000  Level Jacksonville Center
01:13PM 31.7533 -81.9031 26° Northeast 486 559 39,000  Level Jacksonville Center
01:14PM 31.8886 -81.8258 26° Northeast 486 559 39,000  Level Jacksonville Center
01:15PM 32.0008 -81.7633 25° Northeast 486 559 39,000  Level Jacksonville Center
01:16PM 32.1358 -81.6903 25° Northeast 486 559 39,000  Level Jacksonville Center
01:17PM 32.2603 -81.6175 26° Northeast 486 559 39,000  Level Jacksonville Center
01:18PM 32.3725 -81.5544 25° Northeast 486 559 39,000  Level Jacksonville Center
01:19PM 32.5072 -81.4689 28° Northeast 486 559 39,000  Level Jacksonville Center
01:20PM 32.6253 -81.3881 30° Northeast 493 567 39,000  Level Jacksonville Center
01:21PM 32.7350 -81.3094 31° Northeast 498 573 39,000  Level Jacksonville Center
01:22PM 32.8569 -81.2283 29° Northeast 498 573 39,000  Level Jacksonville Center
01:23PM 32.9750 -81.1469 30° Northeast 498 573 39,000  Level Jacksonville Center
01:24PM 33.0969 -81.0653 29° Northeast 493 567 39,000  Level Jacksonville Center
01:25PM 33.2147 -80.9808 31° Northeast 493 567 39,000  Level Jacksonville Center
01:26PM 33.3367 -80.9011 29° Northeast 493 567 39,000  Level Jacksonville Center
01:27PM 33.4583 -80.8161 30° Northeast 493 567 39,000  Level Jacksonville Center
01:28PM 33.5758 -80.7311 31° Northeast 493 567 39,000  Level Jacksonville Center
01:29PM 33.6975 -80.6483 30° Northeast 493 567 39,000  Level Jacksonville Center
01:30PM 33.8192 -80.5628 30° Northeast 498 573 39,000  Level Jacksonville Center
01:31PM 33.9406 -80.4769 30° Northeast 498 573 39,000  Level Jacksonville Center
01:32PM 34.0600 -80.3933 30° Northeast 492 566 39,000  Level Jacksonville Center
01:33PM 34.1792 -80.3097 30° Northeast 492 566 39,000  Level Jacksonville Center
01:34PM 34.3006 -80.2256 30° Northeast 492 566 39,000  Level Jacksonville Center
01:35PM 34.4197 -80.1364 32° Northeast 497 572 39,000  Level Jacksonville Center
01:37PM 34.6081 -80.0003 31° Northeast 526 605 39,000  Level Washington Center
01:38PM 34.7300 -79.9183 29° Northeast 515 593 39,000  Level Washington Center
01:39PM 34.8478 -79.8283 32° Northeast 503 579 39,000  Level Washington Center
01:40PM 34.9700 -79.7411 30° Northeast 503 579 39,000  Level Washington Center
01:41PM 35.1006 -79.6461 31° Northeast 503 579 39,000  Level Washington Center
01:42PM 35.2164 -79.5453 35° Northeast 503 579 39,000  Level Washington Center
01:43PM 35.3228 -79.4208 44° Northeast 509 586 39,000  Level Washington Center
01:44PM 35.4308 -79.3011 42° Northeast 519 597 39,000  Level Washington Center
01:45PM 35.5347 -79.1781 44° Northeast 519 597 39,000  Level Washington Center
01:46PM 35.6383 -79.0603 43° Northeast 509 586 39,000  Level Washington Center
01:47PM 35.7442 -78.9394 43° Northeast 509 586 39,000  Level Washington Center
01:48PM 35.8497 -78.8158 43° Northeast 509 586 39,000  Level Washington Center
01:49PM 35.9633 -78.7075 38° Northeast 509 586 39,000  Level Washington Center
01:50PM 36.0806 -78.6067 35° Northeast 509 586 39,000  Level Washington Center
01:51PM 36.1958 -78.5031 36° Northeast 509 586 39,000  Level Washington Center
01:52PM 36.3131 -78.3992 36° Northeast 509 586 39,000  Level Washington Center
01:53PM 36.4322 -78.2950 35° Northeast 509 586 39,000  Level Washington Center
01:54PM 36.5514 -78.1906 35° Northeast 509 586 39,000  Level Washington Center
01:55PM 36.6622 -78.0828 38° Northeast 507 583 39,000  Level Washington Center
01:56PM 36.7833 -77.9778 35° Northeast 513 590 39,000  Level Washington Center
01:57PM 36.8981 -77.8722 36° Northeast 513 590 39,000  Level Washington Center
01:58PM 37.0167 -77.7664 35° Northeast 513 590 39,000  Level Washington Center
01:59PM 37.1333 -77.6603 36° Northeast 518 596 39,000  Level Washington Center
02:00PM 37.2519 -77.5514 36° Northeast 518 596 39,000  Level Washington Center
02:01PM 37.3706 -77.4447 36° Northeast 518 596 39,000  Level Washington Center
02:02PM 37.4869 -77.3375 36° Northeast 518 596 39,000  Level Washington Center
02:03PM 37.6053 -77.2197 38° Northeast 523 602 39,000  Level Washington Center
02:04PM 37.7067 -77.1169 39° Northeast 523 602 39,000  Level Washington Center
02:05PM 37.8189 -76.9983 40° Northeast 523 602 39,000  Level Washington Center
02:06PM 37.9347 -76.8819 38° Northeast 523 602 39,000  Level Washington Center
02:07PM 38.0383 -76.7544 44° Northeast 523 602 39,000  Level Washington Center
02:08PM 38.1375 -76.6133 48° Northeast 523 602 39,000  Level Washington Center
02:09PM 38.2347 -76.4747 48° Northeast 523 602 39,000  Level Washington Center
02:10PM 38.3544 -76.3383 42° Northeast 523 602 39,000  Level Washington Center
02:11PM 38.4758 -76.2256 36° Northeast 518 596 39,000  Level Washington Center
02:12PM 38.5953 -76.1175 35° Northeast 529 609 39,000  Level Washington Center
02:13PM 38.7144 -76.0067 36° Northeast 529 609 39,000  Level Washington Center
02:14PM 38.8317 -75.8956 36° Northeast 529 609 39,000  Level Washington Center
02:15PM 38.9486 -75.7839 37° Northeast 524 603 39,000  Level Washington Center
02:16PM 39.0675 -75.6719 36° Northeast 524 603 39,000  Level Washington Center
02:17PM 39.1864 -75.5622 36° Northeast 524 603 39,000  Level Washington Center
02:18PM 39.3050 -75.4494 36° Northeast 524 603 39,000  Level Washington Center
02:19PM 39.4278 -75.3417 34° Northeast 524 603 39,000  Level Washington Center
02:20PM 39.5483 -75.2308 35° Northeast 524 603 39,000 -240 Level Washington Center
02:21PM 39.7503 -75.0478 35° Northeast 525 604 38,500 -840 Descending New York Center
02:22PM 39.8692 -74.9306 37° Northeast 540 621 36,900 -1,200 Descending New York Center
02:23PM 39.9803 -74.7992 42° Northeast 534 615 36,100 -900 Descending New York Center
02:24PM 40.0972 -74.6675 41° Northeast 539 620 35,200 -960 Descending New York Center
02:25PM 40.2161 -74.5300 41° Northeast 556 640 34,200 -1,380 Descending New York Center
02:26PM 40.3372 -74.3925 41° Northeast 561 646 32,500 -1,620 Descending New York Center
02:27PM 40.4539 -74.2539 42° Northeast 561 646 31,000 -1,200 Descending New York Center
02:28PM 40.5769 -74.1128 41° Northeast 561 646 30,100 -1,560 Descending New York Center
02:30PM 40.8153 -73.8364 41° Northeast 580 667 26,400 -2,040 Descending Boston Center
02:31PM 40.9358 -73.6867 43° Northeast 590 679 24,100 -1,200 Descending Boston Center
02:33PM 41.0575 -73.5358 43° Northeast 595 685 24,000 -540 Descending Boston Center
02:34PM 41.1761 -73.3914 42° Northeast 583 671 23,100 -1,020 Descending Boston Center
02:35PM 41.3017 -73.3019 28° Northeast 531 611 22,000 -1,080 Descending Boston Center
02:36PM 41.4242 -73.3283 351° North 453 521 21,000 -1,560 Descending Boston Center
02:38PM 41.6664 -73.3994 348° North 418 481 17,400 -1,680 Descending Boston Center
02:39PM 41.7717 -73.4294 348° North 392 451 15,900 -1,320 Descending Boston Center
02:40PM 41.8822 -73.4614 348° North 382 440 14,800 -1,320 Descending Boston Center
02:41PM 41.9833 -73.4906 348° North 373 429 13,200 -1,620 Descending Boston Center
02:41PM 42.0214 -73.4989 351° North 369 425 12,500 -1,920 Descending Boston Center
02:41PM 42.0658 -73.5136 346° North 363 418 11,700 -1,500 Descending Boston Center
02:42PM 42.0689 -73.5153 338° Northwest 366 421 11,600 -720 Descending Boston Center
02:42PM 42.1533 -73.5511 343° North 314 361 11,000 -600 Descending Boston Center
02:43PM 42.1556 -73.5542 314° West 320 368 11,000 -720 Level Boston Center
02:44PM 42.2261 -73.5972 336° Northwest 280 322 10,100 -1,260 Descending Boston Center
02:44PM 42.2922 -73.6375 336° Northwest 266 306 8,800 -1,800 Descending Boston Center
02:45PM 42.3075 -73.6475 334° Northwest 267 307 8,300 -1,920 Descending Boston Center
02:46PM 42.3578 -73.6767 337° Northwest 264 304 6,900 -1,920 Descending Boston Center
02:46PM 42.3803 -73.6900 336° Northwest 269 310 6,400 -1,500 Descending Boston Center
02:47PM 42.4256 -73.7169 336° Northwest 264 304 5,400 -1,380 Descending Boston Center
02:47PM 42.4453 -73.7342 327° Northwest 263 303 5,000 -960 Descending Boston Center
02:48PM 42.4764 -73.7919 306° West 245 282 4,400 -720 Descending Boston Center
02:48PM 42.4875 -73.8067 316° Northwest 242 278 4,300 -1,020 Descending Boston Center
02:48PM 42.5128 -73.8389 317° Northwest 209 241 3,500 -1,320 Descending Boston Center
02:49PM 42.5344 -73.8506 338° Northwest 217 250 3,000 -900 Descending Boston Center
02:50PM 42.5750 -73.8628 347° North 210 242 2,500 -900 Descending Boston Center
02:50PM 42.5933 -73.8486 30° Northeast 220 253 2,100 -660 Descending Boston Center
02:51PM 42.6250 -73.8244 29° Northeast 200 230 1,900 -240 Descending Boston Center
02:51PM 42.6400 -73.8128 30° Northeast 198 228 1,900 -240 Level Boston Center
02:51PM 42.6653 -73.8033 15° North 168 193 1,700 -600 Descending Boston Center
02:52PM 42.6833 -73.8019 North 167 192 1,300 -840 Descending Boston Center
02:52PM 42.7058 -73.8053 354° North 138 159 900 -720 Descending Boston Center
02:53PM 42.7250 -73.8044 North 144 166 600 -540 Descending Boston Center
02:54PM 42.7611 -73.8081 356° North 139 160 200 -420 Descending Boston Center
02:56PM 42.7491 -73.8020 180° South  Level Estimated
03:03PM 42.7491 -73.8020 180° South  Level Estimated